createdAt,value
2023-01-01T00:01:23.374Z,7.31
2023-01-01T00:03:52.428Z,7.30
2023-01-01T00:06:21.374Z,7.27
2023-01-01T00:08:49.583Z,7.36
2023-01-01T00:11:17.832Z,7.32
2023-01-01T00:13:45.869Z,7.36
2023-01-01T00:16:14.139Z,7.49
2023-01-01T00:18:42.217Z,7.41
2023-01-01T00:21:13.003Z,7.44
2023-01-01T00:23:41.253Z,7.46
2023-01-01T00:26:15.004Z,7.43
2023-01-01T00:28:44.263Z,7.29
2023-01-01T00:31:17.019Z,7.47
2023-01-01T00:33:54.764Z,7.29
2023-01-01T00:36:24.730Z,7.24
2023-01-01T00:38:52.858Z,7.24
2023-01-01T00:41:21.418Z,7.50
2023-01-01T00:43:49.379Z,7.20
2023-01-01T00:46:17.098Z,7.25
2023-01-01T00:48:44.741Z,7.36
2023-01-01T00:51:12.908Z,7.43
2023-01-01T00:53:40.601Z,7.23
2023-01-01T00:56:08.624Z,7.27
2023-01-01T00:58:36.778Z,7.29
2023-01-01T01:01:04.815Z,7.49
2023-01-01T01:03:32.620Z,7.37
2023-01-01T01:06:03.633Z,7.33
2023-01-01T01:08:33.860Z,7.30
2023-01-01T01:11:05.865Z,7.18
2023-01-01T01:13:33.510Z,7.16
2023-01-01T01:16:01.787Z,7.19
2023-01-01T01:18:29.689Z,7.13
2023-01-01T01:20:57.334Z,7.17
2023-01-01T01:23:25.266Z,7.06
2023-01-01T01:25:53.175Z,7.28
2023-01-01T01:28:21.455Z,7.29
2023-01-01T01:30:49.727Z,7.45
2023-01-01T01:33:17.557Z,7.37
2023-01-01T01:35:51.134Z,7.49
2023-01-01T01:38:22.184Z,7.53
2023-01-01T01:40:50.504Z,7.38
2023-01-01T01:43:44.274Z,7.43
2023-01-01T01:46:33.754Z,7.41
2023-01-01T01:49:27.282Z,7.38
2023-01-01T01:51:55.846Z,7.34
2023-01-01T01:54:26.648Z,7.41
2023-01-01T01:56:58.377Z,7.41
2023-01-01T01:59:30.657Z,7.49
2023-01-01T02:01:59.536Z,7.44
2023-01-01T02:04:29.959Z,7.39
2023-01-01T02:06:57.718Z,7.32
2023-01-01T02:09:25.660Z,7.44
2023-01-01T02:11:56.201Z,7.45
2023-01-01T02:14:23.971Z,7.47
2023-01-01T02:16:56.975Z,7.38
2023-01-01T02:19:45.015Z,7.47
2023-01-01T02:22:17.424Z,7.36
2023-01-01T02:24:59.980Z,7.41
2023-01-01T02:27:46.358Z,7.33
2023-01-01T02:30:15.158Z,7.39
2023-01-01T02:32:47.613Z,7.43
2023-01-01T02:35:21.708Z,7.37
2023-01-01T02:37:51.677Z,7.41
2023-01-01T02:40:23.968Z,7.42
2023-01-01T02:42:53.415Z,7.40
2023-01-01T02:45:22.177Z,7.63
2023-01-01T02:47:50.890Z,7.63
2023-01-01T02:50:23.417Z,7.48
2023-01-01T02:53:12.024Z,7.41
2023-01-01T02:55:46.490Z,7.32
2023-01-01T02:58:23.701Z,7.29
2023-01-01T03:00:56.583Z,7.13
2023-01-01T03:03:42.941Z,7.03
2023-01-01T03:06:27.928Z,6.87
2023-01-01T03:09:11.724Z,6.89
2023-01-01T03:12:03.387Z,6.81
2023-01-01T03:15:02.696Z,6.68
2023-01-01T03:17:35.675Z,6.62
2023-01-01T03:20:08.753Z,6.53
2023-01-01T03:25:12.790Z,6.52
2023-01-01T03:27:47.146Z,6.67
2023-01-01T03:30:17.269Z,6.67
2023-01-01T03:32:51.889Z,6.65
2023-01-01T03:35:21.185Z,6.75
2023-01-01T03:37:50.895Z,6.75
2023-01-01T03:40:19.747Z,6.69
2023-01-01T03:43:00.321Z,6.74
2023-01-01T03:45:35.739Z,6.84
2023-01-01T03:48:03.874Z,6.68
2023-01-01T03:50:56.172Z,6.71
2023-01-01T03:53:39.709Z,6.80
2023-01-01T03:56:10.483Z,6.65
2023-01-01T03:58:42.893Z,6.62
2023-01-01T04:01:11.496Z,6.67
2023-01-01T04:03:41.867Z,6.63
2023-01-01T04:06:14.714Z,6.70
2023-01-01T04:08:43.082Z,6.64
2023-01-01T04:11:20.684Z,6.65
2023-01-01T04:13:48.823Z,6.60
2023-01-01T04:16:16.586Z,6.67
2023-01-01T04:18:47.044Z,6.60
2023-01-01T04:21:15.615Z,6.64
2023-01-01T04:23:43.357Z,6.52
2023-01-01T04:26:15.165Z,6.46
2023-01-01T04:28:43.495Z,6.54
2023-01-01T04:31:11.309Z,6.63
2023-01-01T04:33:39.143Z,6.68
2023-01-01T04:36:09.234Z,6.76
2023-01-01T04:38:37.926Z,6.65
2023-01-01T04:41:05.773Z,6.60
2023-01-01T04:43:33.856Z,6.66
2023-01-01T04:46:03.552Z,6.67
2023-01-01T04:48:32.221Z,6.68
2023-01-01T04:51:02.173Z,6.74
2023-01-01T04:53:34.729Z,6.66
2023-01-01T04:56:08.166Z,6.72
2023-01-01T04:58:37.428Z,6.61
2023-01-01T05:01:06.386Z,6.97
2023-01-01T05:03:34.623Z,6.74
2023-01-01T05:06:09.622Z,6.73
2023-01-01T05:08:40.506Z,6.91
2023-01-01T05:11:09.848Z,6.89
2023-01-01T05:13:39.386Z,6.89
2023-01-01T05:16:09.033Z,6.92
2023-01-01T05:18:37.925Z,6.75
2023-01-01T05:21:09.407Z,6.75
2023-01-01T05:23:37.669Z,6.74
2023-01-01T05:26:13.613Z,6.79
2023-01-01T05:28:45.501Z,6.87
2023-01-01T05:31:18.670Z,6.75
2023-01-01T05:33:54.362Z,6.91
2023-01-01T05:36:28.389Z,6.85
2023-01-01T05:38:57.195Z,6.98
2023-01-01T05:41:26.556Z,6.91
2023-01-01T05:43:56.480Z,6.85
2023-01-01T05:46:26.169Z,7.00
2023-01-01T05:48:54.477Z,6.93
2023-01-01T05:51:25.611Z,7.07
2023-01-01T05:53:54.870Z,6.88
2023-01-01T05:56:23.323Z,6.86
2023-01-01T05:58:51.512Z,6.84
2023-01-01T06:01:25.551Z,6.85
2023-01-01T06:03:55.314Z,6.90
2023-01-01T06:06:25.729Z,6.89
2023-01-01T06:08:56.879Z,6.77
2023-01-01T06:11:25.460Z,6.93
2023-01-01T06:13:56.626Z,6.72
2023-01-01T06:16:25.452Z,6.91
2023-01-01T06:18:53.725Z,6.88
2023-01-01T06:21:24.154Z,6.92
2023-01-01T06:23:52.585Z,6.75
2023-01-01T06:26:26.812Z,6.95
2023-01-01T06:28:55.809Z,6.86
2023-01-01T06:31:25.557Z,6.79
2023-01-01T06:33:53.599Z,6.84
2023-01-01T06:36:25.633Z,6.96
2023-01-01T06:38:56.273Z,6.86
2023-01-01T06:41:26.617Z,6.76
2023-01-01T06:43:56.032Z,6.82
2023-01-01T06:46:25.024Z,6.84
2023-01-01T06:48:56.077Z,6.73
2023-01-01T06:51:28.448Z,6.60
2023-01-01T06:54:01.594Z,6.61
2023-01-01T06:56:30.053Z,6.78
2023-01-01T06:58:58.344Z,6.85
2023-01-01T07:01:29.049Z,6.75
2023-01-01T07:03:58.202Z,6.69
2023-01-01T07:06:27.344Z,6.72
2023-01-01T07:08:55.505Z,6.63
2023-01-01T07:11:26.601Z,6.80
2023-01-01T07:13:54.572Z,6.78
2023-01-01T07:16:23.076Z,6.71
2023-01-01T07:18:51.747Z,6.81
2023-01-01T07:21:33.589Z,6.93
2023-01-01T07:24:04.405Z,6.91
2023-01-01T07:26:32.983Z,6.93
2023-01-01T07:29:08.571Z,7.04
2023-01-01T07:31:37.694Z,7.01
2023-01-01T07:34:06.664Z,7.10
2023-01-01T07:36:34.481Z,7.23
2023-01-01T07:39:02.042Z,7.19
2023-01-01T07:41:30.040Z,7.29
2023-01-01T07:43:59.397Z,7.35
2023-01-01T07:46:27.578Z,7.38
2023-01-01T07:48:55.514Z,7.33
2023-01-01T07:51:23.413Z,7.49
2023-01-01T07:53:52.092Z,7.40
2023-01-01T07:56:20.098Z,7.57
2023-01-01T07:58:47.973Z,7.67
2023-01-01T08:01:15.866Z,8.10
2023-01-01T08:03:43.956Z,7.79
2023-01-01T08:06:13.343Z,7.83
2023-01-01T08:08:41.273Z,7.86
2023-01-01T08:11:09.266Z,7.68
2023-01-01T08:13:36.955Z,7.79
2023-01-01T08:16:06.475Z,8.06
2023-01-01T08:18:34.540Z,7.96
2023-01-01T08:21:02.891Z,8.15
2023-01-01T08:23:30.535Z,8.44
2023-01-01T08:26:01.700Z,8.44
2023-01-01T08:28:30.227Z,8.34
2023-01-01T08:30:58.410Z,8.49
2023-01-01T08:33:26.042Z,8.52
2023-01-01T08:35:54.634Z,8.70
2023-01-01T08:38:22.982Z,8.99
2023-01-01T08:40:50.592Z,9.05
2023-01-01T08:43:18.325Z,9.25
2023-01-01T08:45:46.209Z,9.11
2023-01-01T08:48:13.843Z,9.32
2023-01-01T08:50:42.145Z,9.32
2023-01-01T08:53:10.782Z,9.55
2023-01-01T08:55:38.432Z,9.45
2023-01-01T08:58:06.974Z,9.47
2023-01-01T09:00:35.065Z,9.60
2023-01-01T09:03:02.825Z,9.73
2023-01-01T09:05:30.707Z,9.85
2023-01-01T09:07:58.663Z,9.81
2023-01-01T09:10:27.032Z,10.15
2023-01-01T09:12:54.896Z,10.13
2023-01-01T09:15:22.924Z,10.04
2023-01-01T09:17:50.593Z,10.40
2023-01-01T09:20:18.293Z,10.18
2023-01-01T09:22:46.272Z,10.61
2023-01-01T09:25:13.985Z,10.61
2023-01-01T09:27:41.629Z,10.66
2023-01-01T09:30:10.380Z,11.19
2023-01-01T09:32:38.208Z,11.16
2023-01-01T09:35:06.339Z,11.28
2023-01-01T09:37:34.349Z,11.41
2023-01-01T09:40:02.869Z,11.36
2023-01-01T09:42:51.543Z,11.43
2023-01-01T09:45:24.970Z,11.53
2023-01-01T09:47:53.835Z,11.47
2023-01-01T09:50:29.842Z,11.55
2023-01-01T09:53:00.551Z,11.69
2023-01-01T09:55:34.386Z,11.57
2023-01-01T09:58:02.172Z,11.59
2023-01-01T10:00:32.875Z,11.84
2023-01-01T10:03:10.899Z,11.85
2023-01-01T10:06:00.934Z,12.07
2023-01-01T10:08:50.239Z,12.17
2023-01-01T10:11:36.261Z,12.49
2023-01-01T10:14:15.034Z,12.59
2023-01-01T10:16:48.574Z,12.08
2023-01-01T10:19:37.164Z,12.42
2023-01-01T10:22:13.096Z,12.45
2023-01-01T10:24:47.062Z,12.45
2023-01-01T10:27:39.351Z,12.77
2023-01-01T10:30:18.366Z,12.96
2023-01-01T10:32:57.342Z,13.15
2023-01-01T10:35:37.883Z,13.21
2023-01-01T10:38:06.007Z,13.05
2023-01-01T10:40:34.143Z,13.26
2023-01-01T10:43:01.893Z,13.23
2023-01-01T10:45:43.072Z,13.24
2023-01-01T10:48:24.240Z,13.29
2023-01-01T10:50:52.561Z,13.50
2023-01-01T10:53:26.833Z,13.59
2023-01-01T10:56:12.168Z,13.94
2023-01-01T10:58:48.997Z,14.13
2023-01-01T11:01:23.511Z,14.22
2023-01-01T11:04:13.408Z,14.21
2023-01-01T11:06:44.978Z,14.59
2023-01-01T11:09:24.114Z,14.51
2023-01-01T11:12:11.952Z,14.72
2023-01-01T11:14:54.091Z,14.67
2023-01-01T11:17:28.075Z,15.12
2023-01-01T11:20:02.065Z,15.06
2023-01-01T11:22:44.509Z,14.98
2023-01-01T11:25:18.379Z,15.07
2023-01-01T11:27:46.362Z,15.39
2023-01-01T11:30:29.288Z,15.55
2023-01-01T11:33:03.288Z,15.30
2023-01-01T11:35:49.049Z,14.80
2023-01-01T11:38:27.553Z,15.23
2023-01-01T11:41:06.131Z,15.36
2023-01-01T11:43:39.559Z,15.51
2023-01-01T11:46:09.987Z,15.88
2023-01-01T11:48:41.673Z,15.36
2023-01-01T11:51:12.300Z,15.73
2023-01-01T11:53:41.558Z,15.94
2023-01-01T11:56:18.939Z,15.67
2023-01-01T11:58:49.901Z,15.38
2023-01-01T12:01:41.769Z,15.45
2023-01-01T12:04:24.406Z,14.80
2023-01-01T12:06:55.121Z,14.17
2023-01-01T12:09:43.337Z,14.41
2023-01-01T12:12:12.765Z,14.00
2023-01-01T12:15:05.588Z,13.73
2023-01-01T12:17:37.550Z,13.66
2023-01-01T12:20:29.330Z,14.11
2023-01-01T12:22:58.783Z,14.23
2023-01-01T12:25:33.756Z,14.26
2023-01-01T12:28:23.579Z,14.62
2023-01-01T12:30:55.493Z,14.19
2023-01-01T12:33:35.342Z,14.35
2023-01-01T12:36:10.753Z,14.52
2023-01-01T12:39:06.537Z,14.32
2023-01-01T12:41:45.960Z,14.44
2023-01-01T12:44:48.504Z,14.46
2023-01-01T12:47:38.017Z,14.55
2023-01-01T12:50:29.291Z,14.61
2023-01-01T12:53:32.957Z,14.79
2023-01-01T12:56:52.393Z,14.81
2023-01-01T12:59:24.225Z,15.41
2023-01-01T13:01:56.518Z,15.50
2023-01-01T13:04:24.647Z,15.49
2023-01-01T13:06:57.746Z,15.57
2023-01-01T13:09:27.841Z,15.99
2023-01-01T13:12:16.526Z,16.08
2023-01-01T13:14:46.789Z,15.72
2023-01-01T13:17:25.381Z,15.93
2023-01-01T13:20:15.661Z,15.85
2023-01-01T13:22:45.093Z,16.16
2023-01-01T13:25:12.920Z,15.59
2023-01-01T13:27:55.572Z,15.23
2023-01-01T13:30:35.533Z,14.92
2023-01-01T13:33:28.865Z,14.24
2023-01-01T13:36:09.380Z,13.85
2023-01-01T13:38:57.059Z,13.49
2023-01-01T13:41:45.134Z,13.28
2023-01-01T13:44:22.914Z,13.03
2023-01-01T13:47:09.290Z,12.52
2023-01-01T13:49:59.178Z,12.35
2023-01-01T13:53:15.326Z,12.35
2023-01-01T13:55:52.030Z,12.19
2023-01-01T13:58:37.916Z,12.09
2023-01-01T14:01:14.950Z,11.93
2023-01-01T14:03:48.101Z,11.90
2023-01-01T14:06:23.207Z,11.78
2023-01-01T14:09:07.411Z,11.83
2023-01-01T14:11:36.713Z,11.71
2023-01-01T14:14:27.295Z,11.76
2023-01-01T14:16:57.928Z,11.55
2023-01-01T14:19:26.683Z,11.48
2023-01-01T14:21:54.795Z,11.55
2023-01-01T14:24:23.868Z,11.54
2023-01-01T14:26:55.202Z,11.68
2023-01-01T14:29:30.716Z,11.58
2023-01-01T14:32:00.969Z,11.47
2023-01-01T14:34:34.786Z,11.52
2023-01-01T14:37:05.396Z,11.50
2023-01-01T14:39:35.235Z,11.38
2023-01-01T14:42:13.121Z,11.34
2023-01-01T14:44:46.599Z,11.34
2023-01-01T14:47:24.198Z,11.34
2023-01-01T14:49:54.588Z,11.26
2023-01-01T14:52:25.173Z,11.29
2023-01-01T14:54:57.353Z,11.24
2023-01-01T14:57:36.289Z,11.17
2023-01-01T15:00:21.418Z,11.06
2023-01-01T15:02:49.530Z,11.03
2023-01-01T15:05:35.555Z,10.98
2023-01-01T15:08:06.264Z,11.02
2023-01-01T15:10:38.459Z,10.95
2023-01-01T15:13:07.730Z,10.96
2023-01-01T15:15:47.511Z,10.94
2023-01-01T15:18:39.018Z,10.92
2023-01-01T15:21:17.833Z,10.86
2023-01-01T15:23:55.859Z,10.60
2023-01-01T15:26:33.313Z,10.51
2023-01-01T15:29:02.069Z,10.63
2023-01-01T15:31:42.424Z,10.77
2023-01-01T15:34:24.174Z,10.68
2023-01-01T15:36:53.564Z,10.48
2023-01-01T15:39:22.201Z,10.63
2023-01-01T15:41:52.212Z,10.63
2023-01-01T15:44:26.588Z,10.65
2023-01-01T15:47:10.976Z,10.52
2023-01-01T15:49:40.607Z,10.57
2023-01-01T15:52:24.581Z,10.52
2023-01-01T15:54:53.375Z,10.40
2023-01-01T15:57:23.137Z,10.61
2023-01-01T15:59:52.049Z,10.44
2023-01-01T16:02:32.496Z,10.41
2023-01-01T16:05:00.790Z,10.54
2023-01-01T16:07:28.645Z,10.55
2023-01-01T16:09:58.033Z,10.63
2023-01-01T16:12:26.479Z,10.49
2023-01-01T16:14:54.177Z,10.52
2023-01-01T16:17:22.224Z,10.38
2023-01-01T16:19:53.930Z,10.38
2023-01-01T16:22:23.805Z,10.45
2023-01-01T16:24:51.768Z,10.48
2023-01-01T16:27:19.531Z,10.42
2023-01-01T16:29:54.509Z,10.38
2023-01-01T16:32:23.150Z,10.41
2023-01-01T16:34:50.729Z,10.34
2023-01-01T16:37:18.287Z,10.41
2023-01-01T16:39:46.222Z,10.20
2023-01-01T16:42:14.282Z,10.21
2023-01-01T16:44:42.261Z,10.34
2023-01-01T16:47:10.647Z,10.12
2023-01-01T16:49:40.080Z,10.13
2023-01-01T16:52:08.434Z,10.11
2023-01-01T16:54:36.868Z,10.30
2023-01-01T16:57:04.421Z,10.29
2023-01-01T16:59:32.224Z,10.31
2023-01-01T17:02:00.376Z,10.38
2023-01-01T17:04:28.174Z,10.33
2023-01-01T17:06:55.842Z,10.16
2023-01-01T17:09:23.699Z,10.15
2023-01-01T17:11:51.397Z,10.13
2023-01-01T17:14:19.056Z,10.19
2023-01-01T17:16:46.960Z,10.11
2023-01-01T17:19:16.308Z,10.09
2023-01-01T17:21:48.378Z,10.08
2023-01-01T17:24:18.497Z,10.04
2023-01-01T17:26:48.699Z,9.85
2023-01-01T17:29:16.943Z,9.93
2023-01-01T17:31:45.253Z,9.93
2023-01-01T17:34:14.539Z,10.01
2023-01-01T17:36:43.596Z,10.03
2023-01-01T17:39:14.958Z,9.93
2023-01-01T17:41:45.301Z,9.98
2023-01-01T17:44:15.971Z,9.87
2023-01-01T17:46:43.975Z,9.84
2023-01-01T17:49:11.900Z,9.94
2023-01-01T17:51:39.931Z,9.92
2023-01-01T17:54:09.272Z,9.87
2023-01-01T17:56:37.641Z,9.78
2023-01-01T17:59:05.479Z,9.85
2023-01-01T18:01:34.992Z,9.81
2023-01-01T18:04:08.634Z,9.91
2023-01-01T18:06:42.088Z,9.79
2023-01-01T18:09:12.980Z,9.80
2023-01-01T18:11:41.783Z,9.81
2023-01-01T18:14:10.530Z,9.82
2023-01-01T18:16:39.810Z,9.83
2023-01-01T18:19:08.090Z,9.83
2023-01-01T18:21:35.724Z,9.83
2023-01-01T18:24:10.963Z,9.82
2023-01-01T18:26:38.841Z,9.79
2023-01-01T18:29:07.071Z,9.66
2023-01-01T18:31:35.032Z,9.75
2023-01-01T18:34:02.888Z,9.71
2023-01-01T18:36:32.578Z,9.72
2023-01-01T18:39:13.089Z,9.75
2023-01-01T18:42:04.416Z,9.77
2023-01-01T18:44:32.926Z,9.67
2023-01-01T18:47:12.128Z,9.61
2023-01-01T18:49:44.475Z,9.49
2023-01-01T18:52:18.094Z,9.70
2023-01-01T18:54:46.840Z,9.60
2023-01-01T18:57:29.311Z,9.54
2023-01-01T19:00:16.598Z,9.51
2023-01-01T19:02:59.656Z,9.61
2023-01-01T19:05:32.877Z,9.74
2023-01-01T19:08:06.592Z,9.70
2023-01-01T19:10:44.050Z,9.59
2023-01-01T19:13:16.849Z,9.62
2023-01-01T19:16:08.726Z,9.59
2023-01-01T19:18:44.041Z,9.50
2023-01-01T19:21:11.706Z,9.72
2023-01-01T19:23:46.071Z,9.62
2023-01-01T19:26:23.274Z,9.68
2023-01-01T19:29:03.594Z,9.68
2023-01-01T19:31:31.371Z,9.64
2023-01-01T19:33:59.639Z,9.61
2023-01-01T19:36:27.512Z,9.63
2023-01-01T19:38:55.736Z,9.63
2023-01-01T19:41:27.851Z,9.66
2023-01-01T19:43:55.708Z,9.50
2023-01-01T19:46:24.171Z,9.43
2023-01-01T19:48:52.453Z,9.44
2023-01-01T19:51:21.117Z,9.56
2023-01-01T19:53:50.877Z,9.48
2023-01-01T19:56:19.011Z,9.61
2023-01-01T19:58:47.250Z,9.56
2023-01-01T20:01:16.938Z,9.46
2023-01-01T20:03:55.880Z,9.49
2023-01-01T20:06:25.375Z,9.25
2023-01-01T20:08:53.695Z,9.46
2023-01-01T20:11:21.994Z,9.50
2023-01-01T20:13:49.938Z,9.43
2023-01-01T20:16:18.121Z,9.61
2023-01-01T20:18:46.433Z,9.63
2023-01-01T20:21:14.409Z,9.52
2023-01-01T20:23:42.730Z,9.47
2023-01-01T20:26:11.305Z,9.41
2023-01-01T20:28:39.674Z,9.47
2023-01-01T20:31:09.981Z,9.47
2023-01-01T20:33:38.142Z,9.48
2023-01-01T20:36:06.147Z,9.45
2023-01-01T20:38:39.930Z,9.62
2023-01-01T20:41:08.486Z,9.51
2023-01-01T20:43:36.668Z,9.57
2023-01-01T20:46:04.887Z,9.66
2023-01-01T20:48:32.863Z,9.55
2023-01-01T20:51:01.275Z,9.57
2023-01-01T20:53:29.777Z,9.56
2023-01-01T20:55:57.710Z,9.60
2023-01-01T20:58:25.742Z,9.59
2023-01-01T21:00:53.666Z,9.67
2023-01-01T21:03:21.837Z,9.59
2023-01-01T21:05:49.714Z,9.65
2023-01-01T21:08:17.880Z,9.67
2023-01-01T21:10:46.267Z,9.61
2023-01-01T21:13:14.460Z,9.55
2023-01-01T21:15:42.423Z,9.59
2023-01-01T21:18:12.239Z,9.45
2023-01-01T21:20:48.376Z,9.56
2023-01-01T21:23:26.092Z,9.39
2023-01-01T21:25:54.187Z,9.48
2023-01-01T21:28:22.438Z,9.38
2023-01-01T21:30:52.030Z,9.55
2023-01-01T21:33:30.679Z,9.56
2023-01-01T21:36:02.215Z,9.52
2023-01-01T21:38:31.486Z,9.60
2023-01-01T21:41:00.360Z,9.49
2023-01-01T21:43:31.961Z,9.49
2023-01-01T21:46:12.892Z,9.52
2023-01-01T21:48:43.567Z,9.55
2023-01-01T21:51:26.842Z,9.52
2023-01-01T21:54:32.176Z,9.34
2023-01-01T21:57:01.607Z,9.43
2023-01-01T21:59:33.982Z,9.31
2023-01-01T22:02:05.369Z,9.25
2023-01-01T22:04:39.963Z,9.29
2023-01-01T22:10:35.519Z,9.44
2023-01-01T22:13:03.248Z,9.39
2023-01-01T22:15:40.140Z,9.39
2023-01-01T22:18:26.147Z,9.39
2023-01-01T22:20:54.743Z,9.40
2023-01-01T22:23:40.177Z,9.45
2023-01-01T22:26:18.277Z,9.42
2023-01-01T22:28:47.448Z,9.39
2023-01-01T22:31:22.154Z,9.36
2023-01-01T22:33:51.554Z,9.38
2023-01-01T22:36:27.007Z,9.37
2023-01-01T22:38:56.971Z,9.33
2023-01-01T22:41:24.851Z,9.36
2023-01-01T22:43:58.465Z,9.35
2023-01-01T22:46:29.099Z,9.38
2023-01-01T22:49:01.228Z,9.26
2023-01-01T22:51:35.053Z,9.19
2023-01-01T22:54:03.910Z,9.19
2023-01-01T22:56:31.805Z,9.33
2023-01-01T22:58:59.711Z,9.34
2023-01-01T23:01:27.394Z,9.29
2023-01-01T23:03:55.393Z,9.30
2023-01-01T23:06:23.326Z,9.24
2023-01-01T23:08:51.954Z,9.30
2023-01-01T23:11:20.636Z,9.20
2023-01-01T23:13:49.801Z,9.22
2023-01-01T23:16:17.483Z,9.19
2023-01-01T23:18:45.397Z,9.11
2023-01-01T23:21:26.065Z,9.03
2023-01-01T23:23:56.299Z,9.12
2023-01-01T23:26:24.965Z,9.16
2023-01-01T23:28:53.646Z,9.16
2023-01-01T23:31:25.563Z,9.19
2023-01-01T23:33:54.912Z,9.22
2023-01-01T23:36:24.798Z,9.25
2023-01-01T23:38:52.451Z,9.26
2023-01-01T23:41:20.397Z,9.15
2023-01-01T23:43:49.130Z,9.10
2023-01-01T23:46:18.051Z,9.02
2023-01-01T23:48:46.493Z,8.96
2023-01-01T23:51:15.321Z,9.05
2023-01-01T23:53:42.944Z,9.05
2023-01-01T23:56:10.683Z,8.94
2023-01-01T23:58:38.869Z,8.82
